Main page
METAR-TAF:

METAR-TAF

Airports :

Ilorin, Nigeria

Ilorin International Airport

latitude: 08-29N, longitude: 004-35E, elevation: 308 m

METAR: missing

Time: 12:58 (11:58 UTC)

Forecast

The report was made 2 hours and 18 minutes ago, at 09:40 UTC
Forecast valid from 20 at 12 UTC to 21 at 18 UTC
Wind 10 kt from the Southwest
Visibility 10 km or more
Broken clouds at a height of 1100 ft
Temporary
from 20 at 14 UTC to 20 at 18 UTC
Scattered clouds at a height of 1300 ft
Few clouds at a height of 2100 ft, Cumulonimbus.
Becoming
from 20 at 18 UTC to 20 at 20 UTC
Wind 3 kt from the South
Visibility 10 km or more
no clouds below 1500 m and no cumulonimbus

TAF: DNIL 200940Z 2012/2118 22010KT 9999 BKN011 TEMPO 2014/2018 SCT013 FEW021CB BECMG 2018/2020 17003KT CAVOK

Weather observations and forecasts of more than 4000 airports (METAR and TAF reports).

The available stations are represented by yellow and red dots on the map.

Hover mouse over dot to see the name of the station.

Then click to see weather observations and forecasts.

To change the map : click on the green buttons with a black cross to zoom in, on the green button with a dash to zoom out, or on the green arrows for adjacent maps.


METAR-TAF: